Time;durP1;ratioP1;P1;durP2;ratioP2;P2;SDS_P1;SDS_P2;PMS_P1;PMS_P2;Temp;Humidity;BMP_temperature;BMP_pressure;BME280_temperature;BME280_humidity;BME280_pressure;Samples;Min_cycle;Max_cycle;Signal;HPM_P1;HPM_P2
2023/10/24 00:01:58;;;;;;;13.38;5.18;;;10.50;99.90;;;;;;6274896;22;20069;-84
2023/10/24 00:04:25;;;;;;;14.82;5.82;;;10.50;99.90;;;;;;6303497;22;20007;-84
2023/10/24 00:06:51;;;;;;;7.28;4.03;;;10.60;99.90;;;;;;6303799;22;20652;-84
2023/10/24 00:09:16;;;;;;;6.88;4.03;;;10.50;99.90;;;;;;6303042;22;20064;-85
2023/10/24 00:11:42;;;;;;;11.05;4.22;;;10.60;99.90;;;;;;6275620;22;20049;-84
2023/10/24 00:14:08;;;;;;;11.63;4.95;;;10.50;99.90;;;;;;6303206;22;20064;-85
2023/10/24 00:16:33;;;;;;;7.05;4.32;;;10.50;99.90;;;;;;6303916;22;20019;-85
2023/10/24 00:18:59;;;;;;;10.30;3.88;;;10.50;99.90;;;;;;6277759;22;20344;-84
2023/10/24 00:21:25;;;;;;;13.90;4.78;;;10.50;99.90;;;;;;6304913;22;20209;-84
2023/10/24 00:23:52;;;;;;;9.60;4.40;;;10.50;99.90;;;;;;6304508;22;20015;-83
2023/10/24 00:26:18;;;;;;;9.80;5.03;;;10.50;99.90;;;;;;6277520;22;20086;-83
2023/10/24 00:28:43;;;;;;;10.95;4.95;;;10.50;99.90;;;;;;6277426;22;20458;-83
2023/10/24 00:31:09;;;;;;;11.82;5.35;;;10.50;99.90;;;;;;6277289;22;20015;-82
2023/10/24 00:33:35;;;;;;;10.50;5.47;;;10.50;99.90;;;;;;6277748;22;20018;-83
2023/10/24 00:36:01;;;;;;;11.02;4.53;;;10.40;99.90;;;;;;6278882;22;20045;-84
2023/10/24 00:38:27;;;;;;;9.70;4.72;;;10.50;99.90;;;;;;6278222;22;20090;-83
2023/10/24 00:40:52;;;;;;;10.18;4.63;;;10.40;99.90;;;;;;6277596;22;20042;-83
2023/10/24 00:43:18;;;;;;;9.55;4.95;;;10.40;99.90;;;;;;6305384;22;20015;-84
2023/10/24 00:45:44;;;;;;;11.30;4.22;;;10.50;99.90;;;;;;6277651;22;20435;-84
2023/10/24 00:48:10;;;;;;;8.15;4.68;;;10.40;99.90;;;;;;6305174;22;20590;-83
2023/10/24 00:50:37;;;;;;;12.77;5.50;;;10.40;99.90;;;;;;6305841;22;20055;-84
2023/10/24 00:53:03;;;;;;;7.43;3.95;;;10.40;99.90;;;;;;6277297;22;20106;-83
2023/10/24 00:55:31;;;;;;;9.15;4.63;;;10.50;99.90;;;;;;6305410;22;20011;-83
2023/10/24 00:57:59;;;;;;;5.70;3.58;;;10.50;99.90;;;;;;6304559;22;20065;-83
2023/10/24 01:00:26;;;;;;;10.02;4.95;;;10.50;99.90;;;;;;6305382;22;20023;-83
2023/10/24 01:02:52;;;;;;;6.95;3.10;;;10.40;99.90;;;;;;6305459;22;20443;-83
2023/10/24 01:05:18;;;;;;;10.30;3.13;;;10.40;99.90;;;;;;6304903;22;20015;-83
2023/10/24 01:07:45;;;;;;;7.88;3.50;;;10.40;99.90;;;;;;6305443;22;20011;-83
2023/10/24 01:10:11;;;;;;;8.38;4.57;;;10.50;99.90;;;;;;6305785;22;20323;-83
2023/10/24 01:12:38;;;;;;;6.28;3.55;;;10.50;99.90;;;;;;6277250;22;20051;-83
2023/10/24 01:15:05;;;;;;;6.45;3.47;;;10.40;99.90;;;;;;6304901;22;20038;-83
2023/10/24 01:17:31;;;;;;;12.10;4.18;;;10.40;99.90;;;;;;6305876;22;20056;-83
2023/10/24 01:19:57;;;;;;;7.65;4.00;;;10.50;99.90;;;;;;6303646;22;20312;-83
2023/10/24 01:22:23;;;;;;;8.38;3.95;;;10.50;99.90;;;;;;6305317;22;20020;-83
2023/10/24 01:24:50;;;;;;;10.35;3.72;;;10.40;99.90;;;;;;6305598;22;20008;-83
2023/10/24 01:27:18;;;;;;;8.30;3.28;;;10.50;99.90;;;;;;6304729;22;20377;-83
2023/10/24 01:29:44;;;;;;;7.63;3.08;;;10.50;99.90;;;;;;6277823;22;20411;-83
2023/10/24 01:32:10;;;;;;;6.68;3.13;;;10.50;99.90;;;;;;6276948;22;20015;-83
2023/10/24 01:34:38;;;;;;;5.60;3.08;;;10.50;99.90;;;;;;6277210;22;20444;-83
2023/10/24 01:37:04;;;;;;;6.75;3.10;;;10.50;99.90;;;;;;6278102;22;20015;-83
2023/10/24 01:39:31;;;;;;;9.13;3.25;;;10.50;99.90;;;;;;6304944;22;20050;-83
2023/10/24 01:41:56;;;;;;;5.57;2.88;;;10.50;99.90;;;;;;6304866;22;20323;-83
2023/10/24 01:44:22;;;;;;;4.55;2.83;;;10.60;99.90;;;;;;6305765;22;20070;-83
2023/10/24 01:46:49;;;;;;;5.53;2.40;;;10.60;99.90;;;;;;6305020;22;20356;-83
2023/10/24 01:49:14;;;;;;;6.50;2.97;;;10.50;99.90;;;;;;6278200;22;20088;-83
2023/10/24 01:51:40;;;;;;;5.10;2.72;;;10.50;99.90;;;;;;6277765;22;20459;-83
2023/10/24 01:54:06;;;;;;;5.90;2.58;;;10.60;99.90;;;;;;6277564;22;20380;-83
2023/10/24 01:56:32;;;;;;;5.97;2.53;;;10.60;99.90;;;;;;6278783;22;20019;-83
2023/10/24 01:58:57;;;;;;;5.95;3.00;;;10.60;99.90;;;;;;6277207;22;20471;-83
2023/10/24 02:01:23;;;;;;;4.90;2.35;;;10.60;99.90;;;;;;6276669;22;20455;-83
2023/10/24 02:03:49;;;;;;;5.45;2.40;;;10.60;99.90;;;;;;6304371;22;20089;-83
2023/10/24 02:06:15;;;;;;;4.35;1.98;;;10.60;99.90;;;;;;6277938;22;20078;-83
2023/10/24 02:08:40;;;;;;;4.20;2.15;;;10.60;99.90;;;;;;6276606;22;20011;-83
2023/10/24 02:11:06;;;;;;;5.20;2.38;;;10.60;99.90;;;;;;6304877;22;20068;-83
2023/10/24 02:13:32;;;;;;;4.63;2.28;;;10.60;99.90;;;;;;6304362;22;20069;-83
2023/10/24 02:15:58;;;;;;;7.22;3.08;;;10.70;99.90;;;;;;6304010;22;20015;-83
2023/10/24 02:18:23;;;;;;;4.63;2.28;;;10.70;99.90;;;;;;6304678;22;20015;-83
2023/10/24 02:20:49;;;;;;;7.47;2.75;;;10.70;99.90;;;;;;6304609;22;20090;-83
2023/10/24 02:23:15;;;;;;;4.50;2.47;;;10.70;99.90;;;;;;6302590;22;20437;-83
2023/10/24 02:25:41;;;;;;;4.53;2.42;;;10.70;99.90;;;;;;6304650;22;20019;-83
2023/10/24 02:28:07;;;;;;;4.88;2.55;;;10.70;99.90;;;;;;6304959;22;20057;-83
2023/10/24 02:30:36;;;;;;;7.07;3.17;;;10.70;99.90;;;;;;6303888;22;20015;-83
2023/10/24 02:33:02;;;;;;;6.88;2.67;;;10.80;99.90;;;;;;6304660;22;20082;-83
2023/10/24 02:35:28;;;;;;;5.10;3.22;;;10.80;99.90;;;;;;6304331;22;20038;-83
2023/10/24 02:37:54;;;;;;;5.57;2.63;;;10.80;99.90;;;;;;6303018;22;20023;-84
2023/10/24 02:40:19;;;;;;;4.18;2.47;;;10.80;99.90;;;;;;6305167;22;20018;-83
2023/10/24 02:42:45;;;;;;;6.18;3.25;;;10.80;99.90;;;;;;6304792;22;20635;-84
2023/10/24 02:45:11;;;;;;;6.35;3.17;;;10.80;99.90;;;;;;6275584;22;20011;-83
2023/10/24 02:47:37;;;;;;;6.53;3.53;;;10.90;99.90;;;;;;6277246;22;20012;-84
2023/10/24 02:50:03;;;;;;;6.05;2.88;;;10.80;99.90;;;;;;6275984;22;20023;-84
2023/10/24 02:52:29;;;;;;;6.13;2.67;;;10.90;99.90;;;;;;6304580;22;20014;-83
2023/10/24 02:54:55;;;;;;;11.38;3.92;;;10.90;99.90;;;;;;6305141;22;20015;-83
2023/10/24 02:57:22;;;;;;;5.03;2.67;;;10.90;99.90;;;;;;6276863;22;20402;-83
2023/10/24 02:59:49;;;;;;;6.45;3.53;;;10.90;99.90;;;;;;6304461;22;20011;-84
2023/10/24 03:02:15;;;;;;;7.00;3.35;;;10.90;99.90;;;;;;6305139;22;20402;-84
2023/10/24 03:04:40;;;;;;;6.03;3.50;;;11.00;99.90;;;;;;6303868;22;20077;-83
2023/10/24 03:07:06;;;;;;;7.38;3.90;;;10.90;99.90;;;;;;6305049;22;20074;-83
2023/10/24 03:09:33;;;;;;;8.13;3.42;;;11.00;99.90;;;;;;6275989;22;20011;-84
2023/10/24 03:11:59;;;;;;;6.25;3.47;;;11.00;99.90;;;;;;6304101;22;20011;-84
2023/10/24 03:14:25;;;;;;;4.97;2.28;;;11.00;99.90;;;;;;6305138;22;20015;-83
2023/10/24 03:16:50;;;;;;;4.75;2.78;;;11.00;99.90;;;;;;6304680;22;20019;-83
2023/10/24 03:19:16;;;;;;;5.90;3.10;;;11.00;99.90;;;;;;6303817;22;20090;-83
2023/10/24 03:21:42;;;;;;;6.40;3.70;;;11.10;99.90;;;;;;6304730;22;20011;-83
2023/10/24 03:24:08;;;;;;;5.88;2.97;;;11.10;99.90;;;;;;6276422;22;20019;-83
2023/10/24 03:26:34;;;;;;;8.40;4.03;;;11.10;99.90;;;;;;6274869;22;20090;-83
2023/10/24 03:29:00;;;;;;;5.72;3.63;;;11.10;99.90;;;;;;6304844;22;20046;-83
2023/10/24 03:31:25;;;;;;;10.23;4.47;;;11.10;99.90;;;;;;6304618;22;20007;-83
2023/10/24 03:33:51;;;;;;;8.20;3.53;;;11.10;99.90;;;;;;6303281;22;20030;-83
2023/10/24 03:36:17;;;;;;;6.95;3.17;;;11.10;99.90;;;;;;6276400;22;20011;-84
2023/10/24 03:38:43;;;;;;;7.13;3.03;;;11.10;99.90;;;;;;6303354;22;20377;-83
2023/10/24 03:41:09;;;;;;;7.88;3.95;;;11.10;99.90;;;;;;6302203;22;20011;-83
2023/10/24 03:43:39;;;;;;;9.20;4.28;;;11.10;99.90;;;;;;6276868;22;20015;-83
2023/10/24 03:46:06;;;;;;;6.30;3.58;;;11.20;99.90;;;;;;6303002;22;20053;-83
2023/10/24 03:48:32;;;;;;;6.88;3.42;;;11.20;99.90;;;;;;6304094;22;20340;-83
2023/10/24 03:51:02;;;;;;;8.18;4.00;;;11.20;99.90;;;;;;6276786;22;20023;-83
2023/10/24 03:53:28;;;;;;;7.28;3.90;;;11.20;99.90;;;;;;6303477;22;20019;-83
2023/10/24 03:56:00;;;;;;;4.53;3.25;;;11.20;99.90;;;;;;6304345;22;20016;-83
2023/10/24 03:58:26;;;;;;;8.27;3.30;;;11.20;99.90;;;;;;6277068;22;20022;-83
2023/10/24 04:00:52;;;;;;;8.88;3.83;;;11.20;99.90;;;;;;6303475;22;20078;-83
2023/10/24 04:03:17;;;;;;;5.18;3.53;;;11.20;99.90;;;;;;6276403;22;20046;-83
2023/10/24 04:05:43;;;;;;;5.45;4.00;;;11.30;99.90;;;;;;6303670;22;20011;-83
2023/10/24 04:08:09;;;;;;;6.22;3.80;;;11.30;99.90;;;;;;6302625;22;20134;-83
2023/10/24 04:10:35;;;;;;;6.78;3.50;;;11.30;99.90;;;;;;6276951;22;20082;-83
2023/10/24 04:13:01;;;;;;;9.30;4.45;;;11.30;99.90;;;;;;6304151;22;20019;-83
2023/10/24 04:15:27;;;;;;;5.97;3.65;;;11.30;99.90;;;;;;6302018;22;20015;-83
2023/10/24 04:17:54;;;;;;;8.25;4.65;;;11.30;99.90;;;;;;6303611;22;20435;-83
2023/10/24 04:20:20;;;;;;;6.53;4.03;;;11.40;99.90;;;;;;6304349;22;20007;-83
2023/10/24 04:22:49;;;;;;;6.93;3.53;;;11.40;99.90;;;;;;6303359;22;20082;-83
2023/10/24 04:25:15;;;;;;;8.93;4.57;;;11.50;99.90;;;;;;6304528;22;20026;-83
2023/10/24 04:27:41;;;;;;;6.80;3.80;;;11.40;99.90;;;;;;6303832;22;20026;-84
2023/10/24 04:30:08;;;;;;;6.53;4.10;;;11.50;99.90;;;;;;6302684;22;20439;-82
2023/10/24 04:32:33;;;;;;;7.63;3.90;;;11.50;99.90;;;;;;6304145;22;20011;-83
2023/10/24 04:35:00;;;;;;;5.95;3.90;;;11.50;99.90;;;;;;6276486;22;20050;-83
2023/10/24 04:37:26;;;;;;;6.20;3.58;;;11.50;99.90;;;;;;6303892;22;20093;-83
2023/10/24 04:39:53;;;;;;;6.38;3.63;;;11.60;99.90;;;;;;6303397;22;20622;-83
2023/10/24 04:42:19;;;;;;;8.60;4.50;;;11.60;99.90;;;;;;6302551;22;20007;-83
2023/10/24 04:44:45;;;;;;;6.70;3.92;;;11.60;99.90;;;;;;6275537;22;20068;-83
2023/10/24 04:47:10;;;;;;;9.82;3.83;;;11.60;99.90;;;;;;6276347;22;20090;-83
2023/10/24 04:49:36;;;;;;;10.02;4.55;;;11.70;99.90;;;;;;6302076;22;20045;-83
2023/10/24 04:52:02;;;;;;;5.82;3.85;;;11.60;99.90;;;;;;6276191;22;20161;-83
2023/10/24 04:54:28;;;;;;;6.85;4.03;;;11.60;99.90;;;;;;6303517;22;20019;-83
2023/10/24 04:56:55;;;;;;;11.50;5.07;;;11.60;99.90;;;;;;6302762;22;20022;-83
2023/10/24 04:59:21;;;;;;;8.27;4.88;;;11.70;99.90;;;;;;6303378;22;20518;-84
2023/10/24 05:01:47;;;;;;;9.73;3.72;;;11.70;99.90;;;;;;6307144;22;20046;-83
2023/10/24 05:04:12;;;;;;;6.15;3.92;;;11.60;99.90;;;;;;6308055;22;20039;-83
2023/10/24 05:06:38;;;;;;;5.80;3.78;;;11.70;99.90;;;;;;6304689;22;20011;-83
2023/10/24 05:09:04;;;;;;;7.70;4.50;;;11.70;99.90;;;;;;6278097;22;20011;-84
2023/10/24 05:11:30;;;;;;;6.65;4.22;;;11.70;99.90;;;;;;6304750;22;20436;-83
2023/10/24 05:13:55;;;;;;;6.22;4.43;;;11.70;99.90;;;;;;6277059;22;20019;-83
2023/10/24 05:16:24;;;;;;;7.43;4.20;;;11.70;99.90;;;;;;6277687;22;20029;-84
2023/10/24 05:18:50;;;;;;;8.23;4.32;;;11.60;99.90;;;;;;6276877;22;20015;-82
2023/10/24 05:21:15;;;;;;;5.63;3.25;;;11.60;99.90;;;;;;6305134;22;20335;-82
2023/10/24 05:23:41;;;;;;;6.40;3.80;;;11.60;99.90;;;;;;6277254;22;20428;-82
2023/10/24 05:26:07;;;;;;;7.07;4.25;;;11.60;99.90;;;;;;6276669;22;20467;-83
2023/10/24 05:28:34;;;;;;;7.40;4.05;;;11.60;99.90;;;;;;6304486;22;20069;-82
2023/10/24 05:31:07;;;;;;;7.57;3.42;;;11.60;99.90;;;;;;6275412;22;20042;-82
2023/10/24 05:33:34;;;;;;;6.15;3.92;;;11.60;99.90;;;;;;6304103;22;20047;-82
2023/10/24 05:36:00;;;;;;;6.07;3.85;;;11.60;99.90;;;;;;6304849;22;20021;-82
2023/10/24 05:38:26;;;;;;;6.60;3.72;;;11.60;99.90;;;;;;6303836;22;20437;-83
2023/10/24 05:40:51;;;;;;;6.05;2.95;;;11.60;99.90;;;;;;6304345;22;20049;-83
2023/10/24 05:43:17;;;;;;;7.22;3.22;;;11.60;99.90;;;;;;6304032;22;20046;-82
2023/10/24 05:45:43;;;;;;;4.88;3.33;;;11.60;99.90;;;;;;6303458;22;20011;-83
2023/10/24 05:48:08;;;;;;;7.13;3.67;;;11.60;99.90;;;;;;6304329;22;20018;-82
2023/10/24 05:50:36;;;;;;;6.35;3.20;;;11.50;99.90;;;;;;6304854;22;20015;-82
2023/10/24 05:53:02;;;;;;;7.65;2.83;;;11.50;99.90;;;;;;6304647;22;20031;-82
2023/10/24 05:55:28;;;;;;;4.78;2.90;;;11.60;99.90;;;;;;6305592;22;20011;-82
2023/10/24 05:57:54;;;;;;;3.47;2.08;;;11.50;99.90;;;;;;6304405;22;20325;-82
2023/10/24 06:00:19;;;;;;;3.72;2.08;;;11.50;99.90;;;;;;6303757;22;20010;-82
2023/10/24 06:02:45;;;;;;;4.18;2.30;;;11.40;99.90;;;;;;6304046;22;20431;-82
2023/10/24 06:05:11;;;;;;;5.88;2.83;;;11.40;99.90;;;;;;6304504;22;20071;-82
2023/10/24 06:07:37;;;;;;;3.33;1.95;;;11.40;99.90;;;;;;6303395;22;20008;-83
2023/10/24 06:10:03;;;;;;;4.72;1.90;;;11.40;99.90;;;;;;6304097;22;20053;-82
2023/10/24 06:12:29;;;;;;;3.47;2.05;;;11.30;99.90;;;;;;6303967;22;20050;-82
2023/10/24 06:14:55;;;;;;;3.50;1.85;;;11.30;99.90;;;;;;6303304;22;20518;-82
2023/10/24 06:17:21;;;;;;;5.80;2.45;;;11.20;99.90;;;;;;6304225;22;20436;-82
2023/10/24 06:19:49;;;;;;;3.78;2.13;;;11.20;99.90;;;;;;6304852;22;20022;-83
2023/10/24 06:22:16;;;;;;;5.10;2.17;;;11.20;99.90;;;;;;6302360;22;20019;-85
2023/10/24 06:24:42;;;;;;;4.30;2.45;;;11.20;99.90;;;;;;6301686;22;20669;-84
2023/10/24 06:27:09;;;;;;;3.47;1.73;;;11.20;99.90;;;;;;6300292;22;20501;-84
2023/10/24 06:29:35;;;;;;;3.00;1.77;;;11.20;99.90;;;;;;6301989;22;20015;-85
2023/10/24 06:32:01;;;;;;;4.72;2.30;;;11.10;99.90;;;;;;6301669;22;20080;-85
2023/10/24 06:34:27;;;;;;;4.63;2.40;;;11.10;99.90;;;;;;6272175;22;20370;-85
2023/10/24 06:36:52;;;;;;;5.00;2.08;;;11.10;99.90;;;;;;6273952;22;20015;-85
2023/10/24 06:39:18;;;;;;;5.25;2.50;;;11.10;99.90;;;;;;6301353;22;20395;-85
2023/10/24 06:41:45;;;;;;;5.68;2.55;;;11.10;99.90;;;;;;6273188;22;20348;-84
2023/10/24 06:44:11;;;;;;;5.90;2.55;;;11.00;99.90;;;;;;6274136;22;20094;-84
2023/10/24 06:46:36;;;;;;;5.32;3.15;;;11.10;99.90;;;;;;6301589;22;20058;-85
2023/10/24 06:49:02;;;;;;;5.18;2.47;;;11.00;99.90;;;;;;6300663;22;20015;-85
2023/10/24 06:51:28;;;;;;;4.57;2.10;;;11.00;99.90;;;;;;6301867;22;20327;-85
2023/10/24 06:53:54;;;;;;;4.55;2.35;;;11.00;99.90;;;;;;6274648;22;20034;-83
2023/10/24 06:56:19;;;;;;;4.85;2.38;;;11.00;99.90;;;;;;6273071;22;20514;-83
2023/10/24 06:58:45;;;;;;;5.20;2.55;;;11.00;99.90;;;;;;6301273;22;20090;-83
2023/10/24 07:01:11;;;;;;;5.13;2.65;;;11.10;99.90;;;;;;6301656;22;20047;-83
2023/10/24 07:03:36;;;;;;;5.05;2.50;;;11.00;99.90;;;;;;6303720;22;20011;-83
2023/10/24 07:06:04;;;;;;;5.45;2.70;;;11.10;99.90;;;;;;6277022;22;20045;-83
2023/10/24 07:08:30;;;;;;;7.30;3.53;;;11.00;99.90;;;;;;6301885;22;20078;-82
2023/10/24 07:10:56;;;;;;;9.93;4.13;;;11.10;99.90;;;;;;6304007;22;20019;-82
2023/10/24 07:13:22;;;;;;;8.88;4.05;;;11.10;99.90;;;;;;6304897;22;20030;-83
2023/10/24 07:15:48;;;;;;;5.22;2.45;;;11.10;99.90;;;;;;6273437;22;20015;-84
2023/10/24 07:18:13;;;;;;;9.25;3.38;;;11.10;99.90;;;;;;6274044;22;20043;-83
2023/10/24 07:20:40;;;;;;;7.53;2.80;;;11.10;99.90;;;;;;6301865;22;20042;-83
2023/10/24 07:23:06;;;;;;;7.10;3.13;;;11.10;99.90;;;;;;6300613;22;20019;-82
2023/10/24 07:25:32;;;;;;;7.75;3.08;;;11.10;99.90;;;;;;6301916;22;20007;-83
2023/10/24 07:27:58;;;;;;;6.32;3.40;;;11.10;99.90;;;;;;6300919;22;20011;-83
2023/10/24 07:30:24;;;;;;;7.43;3.15;;;11.10;99.90;;;;;;6300235;22;20026;-82
2023/10/24 07:32:53;;;;;;;7.47;2.83;;;11.00;99.90;;;;;;6301391;22;20015;-85
2023/10/24 07:35:23;;;;;;;7.78;3.40;;;11.00;99.90;;;;;;6300955;22;20011;-90
2023/10/24 07:37:49;;;;;;;8.35;3.28;;;11.00;99.90;;;;;;6272478;22;20046;-88
2023/10/24 07:40:15;;;;;;;8.18;3.88;;;11.10;99.90;;;;;;6301364;22;20069;-85
2023/10/24 07:42:41;;;;;;;8.77;4.85;;;11.10;99.90;;;;;;6301372;22;20038;-84
2023/10/24 07:45:07;;;;;;;8.95;4.10;;;11.10;99.90;;;;;;6300219;22;20428;-85
2023/10/24 07:47:33;;;;;;;7.55;3.55;;;11.10;99.90;;;;;;6272556;22;20048;-85
2023/10/24 07:49:59;;;;;;;7.30;4.20;;;11.10;99.90;;;;;;6300662;22;20019;-85
2023/10/24 07:52:25;;;;;;;11.98;5.70;;;11.10;99.90;;;;;;6300941;22;20114;-85
2023/10/24 07:54:52;;;;;;;7.45;3.65;;;11.10;99.90;;;;;;6300956;22;20019;-85
2023/10/24 07:57:17;;;;;;;13.10;5.35;;;11.10;99.90;;;;;;6273590;22;20521;-85
2023/10/24 07:59:43;;;;;;;10.93;4.47;;;11.10;99.90;;;;;;6272764;22;20094;-85
2023/10/24 08:02:09;;;;;;;9.13;4.28;;;11.10;99.90;;;;;;6273088;22;20046;-85
2023/10/24 08:04:35;;;;;;;7.03;3.25;;;11.10;99.90;;;;;;6273068;22;20018;-83
2023/10/24 08:07:03;;;;;;;9.52;4.00;;;11.10;99.90;;;;;;6273547;22;20470;-84
2023/10/24 08:09:29;;;;;;;6.65;3.78;;;11.10;99.90;;;;;;6301883;22;20066;-83
2023/10/24 08:11:55;;;;;;;9.40;3.90;;;11.10;99.90;;;;;;6300485;22;20015;-83
2023/10/24 08:14:21;;;;;;;7.07;3.85;;;11.10;99.90;;;;;;6301468;22;20078;-83
2023/10/24 08:16:46;;;;;;;8.20;3.72;;;11.10;99.90;;;;;;6301371;22;20458;-83
2023/10/24 08:19:12;;;;;;;8.82;4.28;;;11.10;99.90;;;;;;6300311;22;20011;-83
2023/10/24 08:21:38;;;;;;;8.63;4.03;;;11.10;99.90;;;;;;6300750;22;20007;-84
2023/10/24 08:24:04;;;;;;;8.15;4.05;;;11.20;99.90;;;;;;6272770;22;20479;-84
2023/10/24 08:26:30;;;;;;;6.88;3.45;;;11.20;99.90;;;;;;6299818;22;20011;-83
2023/10/24 08:28:55;;;;;;;9.55;4.68;;;11.20;99.90;;;;;;6273744;22;20019;-83
2023/10/24 08:31:21;;;;;;;6.35;3.45;;;11.20;99.90;;;;;;6274319;22;20043;-84
2023/10/24 08:33:47;;;;;;;8.15;4.05;;;11.20;99.90;;;;;;6301317;22;20042;-84
2023/10/24 08:36:13;;;;;;;9.98;4.15;;;11.20;99.90;;;;;;6301672;22;20019;-83
2023/10/24 08:38:38;;;;;;;11.07;4.90;;;11.20;99.90;;;;;;6302312;22;20011;-84
2023/10/24 08:41:04;;;;;;;9.93;4.47;;;11.20;99.90;;;;;;6301892;22;20068;-84
2023/10/24 08:43:31;;;;;;;6.30;3.28;;;11.20;99.90;;;;;;6302871;22;20091;-83
2023/10/24 08:45:57;;;;;;;13.80;4.35;;;11.20;99.90;;;;;;6303140;22;20335;-85
2023/10/24 08:48:24;;;;;;;9.60;4.80;;;11.20;99.90;;;;;;6301469;22;20022;-82
2023/10/24 08:50:50;;;;;;;8.13;4.18;;;11.20;99.90;;;;;;6275577;22;20429;-82
2023/10/24 08:53:16;;;;;;;6.63;3.67;;;11.30;99.90;;;;;;6301705;22;20015;-83
2023/10/24 08:55:52;;;;;;;8.40;4.05;;;11.30;99.90;;;;;;6300437;22;20022;-83
2023/10/24 08:58:19;;;;;;;7.20;3.97;;;11.30;99.90;;;;;;6275562;22;20466;-83
2023/10/24 09:00:46;;;;;;;8.32;4.75;;;11.30;99.90;;;;;;6302545;22;20510;-83
2023/10/24 09:03:15;;;;;;;6.40;3.80;;;11.30;99.90;;;;;;6302139;22;20011;-86
2023/10/24 09:05:44;;;;;;;6.68;4.20;;;11.40;99.90;;;;;;6275035;22;20011;-84
2023/10/24 09:08:10;;;;;;;7.47;4.33;;;11.40;99.90;;;;;;6274156;22;20025;-87
2023/10/24 09:10:36;;;;;;;7.20;4.10;;;11.30;99.90;;;;;;6274745;22;20011;-84
2023/10/24 09:13:05;;;;;;;9.23;4.65;;;11.40;99.90;;;;;;6301686;22;20094;-85
2023/10/24 09:15:34;;;;;;;9.45;3.75;;;11.40;99.90;;;;;;6301928;22;20014;-83
2023/10/24 09:18:03;;;;;;;6.78;3.72;;;11.40;99.90;;;;;;6275232;22;20030;-84
2023/10/24 09:20:33;;;;;;;7.60;3.70;;;11.40;99.90;;;;;;6302311;22;20016;-82
2023/10/24 09:23:11;;;;;;;9.13;4.35;;;11.40;99.90;;;;;;6301432;22;20018;-84
2023/10/24 09:25:37;;;;;;;7.60;3.80;;;11.40;99.90;;;;;;6302010;22;20060;-83
2023/10/24 09:28:17;;;;;;;8.80;4.00;;;11.40;99.90;;;;;;6301944;22;20487;-82
2023/10/24 09:30:43;;;;;;;7.63;4.47;;;11.40;99.90;;;;;;6301409;22;20011;-83
2023/10/24 09:33:08;;;;;;;7.05;4.00;;;11.40;99.90;;;;;;6301803;22;20054;-83
2023/10/24 09:35:38;;;;;;;7.82;4.72;;;11.40;99.90;;;;;;6274333;22;20023;-83
2023/10/24 09:38:07;;;;;;;6.63;3.75;;;11.40;99.90;;;;;;6273773;22;20073;-83
2023/10/24 09:40:37;;;;;;;7.85;3.88;;;11.40;99.90;;;;;;6274990;22;20017;-84
2023/10/24 09:43:12;;;;;;;8.05;3.70;;;11.40;99.90;;;;;;6272397;22;20023;-83
2023/10/24 09:45:44;;;;;;;7.97;4.40;;;11.50;99.90;;;;;;6274207;22;20050;-83
2023/10/24 09:48:11;;;;;;;7.65;4.13;;;11.50;99.90;;;;;;6274272;22;20019;-83
2023/10/24 09:50:41;;;;;;;6.00;3.85;;;11.50;99.90;;;;;;6274717;22;20403;-83
2023/10/24 09:53:08;;;;;;;9.20;4.22;;;11.60;99.90;;;;;;6300719;22;20011;-83
2023/10/24 09:55:40;;;;;;;9.27;4.82;;;11.60;99.90;;;;;;6300809;22;20015;-84
2023/10/24 09:58:08;;;;;;;9.85;4.25;;;11.60;99.90;;;;;;6300217;22;20015;-83
2023/10/24 10:00:34;;;;;;;7.65;4.15;;;11.60;99.90;;;;;;6274250;22;20092;-83
2023/10/24 10:03:00;;;;;;;8.65;3.92;;;11.60;99.90;;;;;;6301636;22;20011;-83
2023/10/24 10:05:30;;;;;;;7.82;4.18;;;11.60;99.90;;;;;;6273430;22;20015;-82
2023/10/24 10:07:59;;;;;;;9.43;4.03;;;11.60;99.90;;;;;;6274649;22;20449;-84
2023/10/24 10:10:25;;;;;;;7.53;4.22;;;11.60;99.90;;;;;;6301733;22;20086;-83
2023/10/24 10:13:03;;;;;;;9.35;5.55;;;11.50;99.90;;;;;;6300782;22;20051;-83
2023/10/24 10:16:06;;;;;;;11.10;4.68;;;11.60;99.90;;;;;;6274145;22;20023;-82
2023/10/24 10:19:09;;;;;;;6.53;3.78;;;11.50;99.90;;;;;;6300997;22;20069;-83
2023/10/24 10:21:55;;;;;;;7.85;4.00;;;11.50;99.90;;;;;;6301711;22;20015;-84
2023/10/24 10:24:33;;;;;;;11.68;5.45;;;11.60;99.90;;;;;;6301705;22;20015;-83
2023/10/24 10:27:24;;;;;;;8.55;4.45;;;11.60;99.90;;;;;;6274924;22;20015;-82
2023/10/24 10:29:59;;;;;;;10.55;4.82;;;11.70;99.90;;;;;;6273102;22;20035;-82
2023/10/24 10:32:25;;;;;;;9.40;4.40;;;11.70;99.90;;;;;;6273077;22;20381;-83
2023/10/24 10:34:51;;;;;;;10.00;5.13;;;11.80;99.90;;;;;;6274146;22;20019;-81
2023/10/24 10:37:17;;;;;;;10.18;4.75;;;11.90;99.90;;;;;;6274209;22;20023;-83
2023/10/24 10:40:14;;;;;;;10.77;5.25;;;12.10;99.90;;;;;;6300791;22;20054;-84
2023/10/24 10:42:51;;;;;;;8.20;4.82;;;12.20;99.90;;;;;;6273887;22;20011;-84
2023/10/24 10:45:31;;;;;;;8.38;4.78;;;12.30;99.90;;;;;;6273012;22;20057;-83
2023/10/24 10:47:58;;;;;;;;;;;12.40;99.90;;;;;;6273424;22;20015;-84
2023/10/24 10:50:31;;;;;;;11.20;5.53;;;12.40;99.90;;;;;;6273955;22;19922;-83
2023/10/24 10:53:29;;;;;;;12.05;5.45;;;12.40;99.90;;;;;;6301679;22;20015;-83
2023/10/24 10:56:11;;;;;;;10.40;4.78;;;12.40;99.90;;;;;;6273433;22;20083;-83
2023/10/24 10:59:16;;;;;;;10.07;4.28;;;12.50;99.90;;;;;;6300845;22;20015;-84
2023/10/24 11:01:54;;;;;;;9.43;5.40;;;12.40;99.90;;;;;;6300482;22;20042;-83
2023/10/24 11:04:20;;;;;;;9.95;4.72;;;12.40;99.90;;;;;;6301076;22;20015;-83
2023/10/24 11:06:52;;;;;;;12.77;5.05;;;12.30;99.90;;;;;;6273722;22;20011;-82
2023/10/24 11:09:22;;;;;;;11.30;5.13;;;12.30;99.90;;;;;;6302486;22;20439;-83
2023/10/24 11:12:24;;;;;;;9.07;5.03;;;12.20;99.90;;;;;;6302521;22;20019;-82
2023/10/24 11:15:13;;;;;;;7.60;3.70;;;12.30;99.90;;;;;;6300215;22;20011;-83
2023/10/24 11:17:39;;;;;;;11.10;4.63;;;12.20;99.90;;;;;;6273629;22;20012;-83
2023/10/24 11:20:08;;;;;;;7.10;4.10;;;12.20;99.90;;;;;;6273620;22;20015;-83
2023/10/24 11:22:34;;;;;;;9.07;4.50;;;12.10;99.90;;;;;;6272841;22;20011;-84
2023/10/24 11:25:10;;;;;;;10.48;4.63;;;12.10;99.90;;;;;;6273641;22;20015;-84
2023/10/24 11:27:41;;;;;;;8.35;4.35;;;12.10;99.90;;;;;;6273937;22;20019;-84
2023/10/24 11:30:07;;;;;;;7.35;4.78;;;12.10;99.90;;;;;;6272854;22;20011;-84
2023/10/24 11:32:34;;;;;;;8.93;4.47;;;12.10;99.90;;;;;;6273455;22;20022;-85
2023/10/24 11:35:01;;;;;;;9.05;5.10;;;12.00;99.90;;;;;;6300326;22;20015;-84
2023/10/24 11:37:28;;;;;;;8.23;4.03;;;12.00;99.90;;;;;;6273752;22;20112;-92
2023/10/24 11:39:56;;;;;;;9.80;4.60;;;12.00;99.90;;;;;;6274555;22;20024;-84
2023/10/24 11:42:22;;;;;;;8.52;4.22;;;12.00;99.90;;;;;;6300334;22;20019;-84
2023/10/24 11:44:48;;;;;;;9.82;4.90;;;12.10;99.90;;;;;;6301031;22;20659;-83
2023/10/24 11:47:15;;;;;;;8.82;4.93;;;12.10;99.90;;;;;;6300497;22;20328;-84
2023/10/24 11:49:41;;;;;;;9.10;4.45;;;12.20;99.90;;;;;;6299030;22;20340;-84
2023/10/24 11:52:07;;;;;;;7.13;4.13;;;12.20;99.90;;;;;;6273719;22;20027;-84
2023/10/24 11:54:33;;;;;;;9.32;4.55;;;12.30;99.90;;;;;;6273010;22;20493;-84
2023/10/24 11:57:00;;;;;;;6.45;3.85;;;12.30;99.90;;;;;;6273565;22;20047;-84
2023/10/24 11:59:34;;;;;;;8.05;4.20;;;12.40;99.90;;;;;;6301326;22;20316;-84
2023/10/24 12:02:04;;;;;;;8.25;4.43;;;12.40;99.90;;;;;;6300797;22;20502;-84
2023/10/24 12:04:30;;;;;;;8.45;4.63;;;12.50;99.90;;;;;;6300301;22;20054;-83
2023/10/24 12:07:04;;;;;;;7.00;4.07;;;12.50;99.90;;;;;;6301131;22;20090;-83
2023/10/24 12:09:36;;;;;;;6.20;3.42;;;12.60;99.90;;;;;;6300792;22;20011;-83
2023/10/24 12:12:05;;;;;;;8.57;4.75;;;12.60;99.90;;;;;;6302032;22;20470;-84
2023/10/24 12:14:33;;;;;;;8.95;4.45;;;12.60;99.90;;;;;;6303145;22;20011;-84
2023/10/24 12:16:59;;;;;;;6.15;3.53;;;12.60;99.90;;;;;;6274699;22;20019;-84
2023/10/24 12:19:25;;;;;;;6.45;4.05;;;12.60;99.90;;;;;;6273909;22;20470;-84
2023/10/24 12:21:51;;;;;;;8.52;3.40;;;12.60;99.90;;;;;;6274392;22;20392;-84
2023/10/24 12:24:17;;;;;;;6.30;3.17;;;12.50;99.90;;;;;;6301673;22;20088;-84
2023/10/24 12:26:43;;;;;;;7.07;3.88;;;12.50;99.90;;;;;;6301820;22;20016;-84
2023/10/24 12:29:11;;;;;;;6.05;3.30;;;12.50;99.90;;;;;;6276282;22;20026;-84
2023/10/24 12:31:38;;;;;;;7.72;4.15;;;12.50;99.90;;;;;;6275312;22;20037;-85
2023/10/24 12:34:03;;;;;;;6.07;3.35;;;12.40;99.90;;;;;;6302570;22;20098;-84
2023/10/24 12:36:29;;;;;;;8.98;3.35;;;12.40;99.90;;;;;;6275037;22;20046;-84
2023/10/24 12:38:55;;;;;;;6.43;3.58;;;12.40;99.90;;;;;;6301716;22;20014;-85
2023/10/24 12:41:21;;;;;;;5.85;3.40;;;12.30;99.90;;;;;;6302466;22;20042;-84
2023/10/24 12:43:46;;;;;;;6.55;3.95;;;12.30;99.90;;;;;;6302361;22;20308;-84
2023/10/24 12:46:13;;;;;;;5.65;3.88;;;12.30;99.90;;;;;;6302129;22;20258;-83
2023/10/24 12:48:39;;;;;;;6.88;4.05;;;12.40;99.90;;;;;;6274728;22;20019;-84